createdAt,value
2023-07-21T00:01:38.176Z,78.65
2023-07-21T00:04:07.380Z,77.87
2023-07-21T00:06:35.892Z,77.63
2023-07-21T00:09:07.646Z,78.23
2023-07-21T00:11:36.041Z,78.31
2023-07-21T00:14:04.495Z,78.89
2023-07-21T00:16:35.187Z,78.19
2023-07-21T00:19:03.770Z,78.06
2023-07-21T00:21:32.149Z,78.69
2023-07-21T00:24:00.614Z,79.32
2023-07-21T00:26:29.015Z,79.97
2023-07-21T00:28:58.513Z,80.43
2023-07-21T00:31:27.016Z,80.08
2023-07-21T00:33:56.203Z,79.33
2023-07-21T00:36:25.355Z,78.87
2023-07-21T00:38:53.980Z,78.24
2023-07-21T00:41:22.325Z,77.79
2023-07-21T00:43:50.787Z,77.64
2023-07-21T00:46:19.514Z,77.29
2023-07-21T00:48:48.051Z,77.31
2023-07-21T00:51:16.791Z,77.33
2023-07-21T00:53:45.904Z,77.48
2023-07-21T00:56:14.265Z,77.52
2023-07-21T00:58:42.658Z,77.36
2023-07-21T01:01:11.091Z,76.99
2023-07-21T01:03:40.735Z,76.93
2023-07-21T01:06:10.536Z,77.14
2023-07-21T01:08:39.389Z,77.15
2023-07-21T01:11:12.484Z,77.37
2023-07-21T01:13:42.454Z,76.95
2023-07-21T01:16:12.873Z,76.95
2023-07-21T01:18:42.595Z,76.96
2023-07-21T01:21:15.908Z,76.71
2023-07-21T01:23:57.788Z,76.44
2023-07-21T01:26:27.449Z,76.12
2023-07-21T01:28:56.272Z,76.08
2023-07-21T01:31:25.116Z,76.18
2023-07-21T01:33:55.146Z,76.33
2023-07-21T01:36:24.705Z,76.52
2023-07-21T01:38:53.697Z,76.66
2023-07-21T01:41:22.535Z,76.37
2023-07-21T01:43:51.390Z,76.25
2023-07-21T01:46:19.997Z,76.89
2023-07-21T01:48:49.356Z,77.03
2023-07-21T01:51:19.974Z,76.78
2023-07-21T01:53:57.554Z,76.47
2023-07-21T01:56:37.025Z,76.42
2023-07-21T01:59:08.790Z,76.41
2023-07-21T02:01:38.217Z,76.78
2023-07-21T02:04:06.620Z,77.67
2023-07-21T02:06:36.010Z,78.49
2023-07-21T02:09:04.809Z,79.52
2023-07-21T02:11:33.216Z,79.58
2023-07-21T02:14:19.664Z,79.14
2023-07-21T02:16:48.335Z,80.26
2023-07-21T02:19:17.636Z,81.03
2023-07-21T02:21:46.991Z,80.70
2023-07-21T02:24:15.538Z,80.79
2023-07-21T02:26:44.093Z,80.28
2023-07-21T02:29:12.538Z,80.57
2023-07-21T02:31:41.089Z,80.16
2023-07-21T02:34:09.635Z,79.83
2023-07-21T02:36:38.095Z,79.78
2023-07-21T02:39:06.557Z,80.19
2023-07-21T02:41:34.934Z,80.50
2023-07-21T02:44:03.381Z,80.65
2023-07-21T02:46:32.864Z,80.66
2023-07-21T02:49:01.416Z,80.88
2023-07-21T02:51:30.056Z,80.56
2023-07-21T02:53:58.484Z,80.21
2023-07-21T02:56:27.076Z,79.88
2023-07-21T02:59:02.255Z,79.57
2023-07-21T03:01:31.698Z,79.15
2023-07-21T03:04:00.561Z,79.09
2023-07-21T03:06:31.790Z,79.58
2023-07-21T03:09:00.839Z,79.52
2023-07-21T03:11:31.195Z,80.11
2023-07-21T03:14:14.256Z,79.89
2023-07-21T03:16:42.917Z,79.72
2023-07-21T03:19:12.579Z,79.78
2023-07-21T03:21:43.755Z,80.06
2023-07-21T03:24:12.363Z,79.90
2023-07-21T03:26:41.047Z,79.84
2023-07-21T03:29:09.572Z,79.92
2023-07-21T03:31:39.384Z,79.65
2023-07-21T03:34:11.688Z,79.52
2023-07-21T03:36:40.151Z,79.15
2023-07-21T03:39:08.656Z,78.88
2023-07-21T03:41:37.437Z,78.67
2023-07-21T03:44:06.304Z,79.06
2023-07-21T03:46:35.022Z,78.83
2023-07-21T03:49:06.165Z,78.14
2023-07-21T03:51:35.851Z,78.54
2023-07-21T03:54:04.615Z,77.89
2023-07-21T03:56:33.042Z,77.78
2023-07-21T03:59:01.574Z,77.72
2023-07-21T04:01:30.235Z,77.33
2023-07-21T04:03:58.858Z,77.01
2023-07-21T04:06:27.758Z,77.62
2023-07-21T04:08:56.553Z,77.54
2023-07-21T04:11:25.024Z,77.16
2023-07-21T04:13:53.538Z,77.03
2023-07-21T04:16:22.046Z,77.15
2023-07-21T04:18:50.603Z,77.47
2023-07-21T04:21:19.071Z,77.18
2023-07-21T04:23:47.577Z,77.37
2023-07-21T04:26:17.475Z,77.00
2023-07-21T04:28:48.981Z,76.49
2023-07-21T04:31:23.061Z,76.29
2023-07-21T04:34:05.366Z,76.17
2023-07-21T04:36:36.502Z,75.70
2023-07-21T04:39:10.682Z,75.38
2023-07-21T04:41:39.453Z,75.53
2023-07-21T04:44:07.920Z,75.28
2023-07-21T04:46:36.424Z,75.17
2023-07-21T04:49:08.734Z,74.83
2023-07-21T04:51:46.632Z,74.29
2023-07-21T04:54:15.340Z,74.47
2023-07-21T04:56:46.238Z,74.72
2023-07-21T04:59:18.214Z,74.62
2023-07-21T05:01:48.353Z,74.62
2023-07-21T05:04:18.075Z,74.61
2023-07-21T05:06:51.032Z,74.00
2023-07-21T05:09:21.382Z,74.32
2023-07-21T05:11:50.006Z,74.34
2023-07-21T05:14:38.144Z,74.27
2023-07-21T05:17:12.636Z,74.10
2023-07-21T05:19:50.157Z,73.63
2023-07-21T05:22:33.222Z,73.53
2023-07-21T05:25:19.420Z,73.71
2023-07-21T05:27:49.181Z,73.62
2023-07-21T05:30:18.180Z,74.22
2023-07-21T05:32:51.425Z,74.31
2023-07-21T05:35:26.553Z,74.14
2023-07-21T05:37:59.067Z,74.47
2023-07-21T05:40:27.783Z,74.70
2023-07-21T05:42:57.426Z,73.58
2023-07-21T05:45:26.088Z,73.32
2023-07-21T05:47:56.985Z,73.25
2023-07-21T05:50:27.809Z,72.96
2023-07-21T05:52:56.273Z,73.37
2023-07-21T05:55:29.208Z,72.96
2023-07-21T05:57:58.438Z,72.48
2023-07-21T06:00:27.479Z,72.15
2023-07-21T06:02:59.839Z,71.68
2023-07-21T06:05:28.969Z,71.81
2023-07-21T06:08:11.717Z,71.39
2023-07-21T06:11:02.821Z,71.24
2023-07-21T06:13:58.859Z,71.39
2023-07-21T06:16:27.941Z,71.57
2023-07-21T06:18:56.881Z,70.81
2023-07-21T06:21:25.728Z,70.65
2023-07-21T06:23:55.179Z,70.79
2023-07-21T06:26:24.557Z,70.74
2023-07-21T06:28:53.342Z,70.46
2023-07-21T06:31:24.071Z,69.73
2023-07-21T06:34:23.812Z,69.11
2023-07-21T06:37:30.610Z,69.10
2023-07-21T06:40:12.419Z,69.16
2023-07-21T06:43:16.653Z,68.83
2023-07-21T06:46:08.422Z,68.65
2023-07-21T06:48:49.944Z,67.54
2023-07-21T06:51:28.561Z,66.92
2023-07-21T06:53:57.944Z,66.91
2023-07-21T06:56:26.349Z,67.35
2023-07-21T06:58:54.812Z,67.59
2023-07-21T07:01:23.668Z,67.43
2023-07-21T07:03:53.214Z,66.71
2023-07-21T07:06:21.863Z,65.57
2023-07-21T07:08:50.580Z,65.29
2023-07-21T07:11:19.120Z,64.28
2023-07-21T07:13:47.756Z,64.34
2023-07-21T07:16:18.493Z,64.06
2023-07-21T07:18:50.629Z,64.12
2023-07-21T07:21:19.689Z,63.66
2023-07-21T07:23:48.275Z,63.99
2023-07-21T07:26:16.831Z,63.45
2023-07-21T07:28:45.495Z,63.21
2023-07-21T07:31:14.175Z,63.10
2023-07-21T07:33:44.166Z,62.26
2023-07-21T07:36:13.237Z,62.42
2023-07-21T07:38:42.221Z,63.09
2023-07-21T07:41:11.565Z,63.00
2023-07-21T07:43:41.000Z,61.37
2023-07-21T07:46:09.752Z,60.26
2023-07-21T07:48:38.619Z,59.70
2023-07-21T07:51:08.817Z,59.62
2023-07-21T07:53:37.906Z,60.28
2023-07-21T07:56:06.830Z,59.95
2023-07-21T07:58:35.490Z,59.33
2023-07-21T08:01:06.156Z,59.02
2023-07-21T08:03:34.850Z,57.83
2023-07-21T08:06:03.402Z,58.31
2023-07-21T08:08:31.978Z,58.81
2023-07-21T08:11:02.496Z,58.48
2023-07-21T08:13:30.895Z,58.95
2023-07-21T08:15:59.479Z,57.52
2023-07-21T08:18:28.130Z,57.05
2023-07-21T08:20:56.659Z,57.60
2023-07-21T08:23:29.996Z,56.83
2023-07-21T08:25:59.242Z,55.50
2023-07-21T08:28:27.833Z,54.95
2023-07-21T08:30:59.557Z,53.76
2023-07-21T08:33:29.026Z,53.07
2023-07-21T08:35:57.479Z,53.41
2023-07-21T08:38:27.370Z,53.79
2023-07-21T08:41:19.176Z,53.74
2023-07-21T08:43:48.735Z,53.83
2023-07-21T08:46:17.241Z,52.83
2023-07-21T08:48:46.379Z,53.18
2023-07-21T08:51:15.110Z,54.09
2023-07-21T08:53:43.798Z,52.28
2023-07-21T08:56:12.761Z,52.18
2023-07-21T08:58:41.203Z,52.67
2023-07-21T09:01:10.760Z,52.81
2023-07-21T09:03:45.454Z,52.57
2023-07-21T09:06:15.701Z,51.29
2023-07-21T09:08:48.911Z,51.17
2023-07-21T09:11:18.381Z,51.70
2023-07-21T09:13:55.797Z,51.49
2023-07-21T09:16:24.458Z,49.49
2023-07-21T09:18:55.632Z,49.22
2023-07-21T09:21:26.525Z,50.53
2023-07-21T09:24:06.194Z,51.02
2023-07-21T09:26:34.787Z,51.02
2023-07-21T09:29:16.299Z,50.64
2023-07-21T09:31:45.828Z,50.26
2023-07-21T09:34:14.703Z,49.70
2023-07-21T09:36:46.829Z,48.42
2023-07-21T09:39:17.167Z,49.21
2023-07-21T09:41:45.892Z,48.54
2023-07-21T09:44:16.248Z,49.13
2023-07-21T09:46:44.995Z,49.04
2023-07-21T09:49:13.711Z,48.35
2023-07-21T09:51:43.872Z,48.75
2023-07-21T09:54:13.598Z,47.57
2023-07-21T09:56:45.810Z,47.78
2023-07-21T09:59:14.356Z,47.48
2023-07-21T10:01:42.947Z,46.05
2023-07-21T10:04:11.929Z,45.71
2023-07-21T10:06:41.500Z,46.07
2023-07-21T10:09:10.834Z,46.91
2023-07-21T10:11:44.836Z,46.59
2023-07-21T10:14:32.823Z,46.19
2023-07-21T10:17:01.708Z,46.59
2023-07-21T10:19:30.980Z,46.92
2023-07-21T10:22:00.588Z,47.98
2023-07-21T10:24:30.243Z,47.20
2023-07-21T10:27:03.845Z,45.65
2023-07-21T10:29:32.951Z,45.56
2023-07-21T10:32:06.262Z,45.44
2023-07-21T10:34:41.468Z,46.15
2023-07-21T10:37:10.422Z,44.60
2023-07-21T10:39:43.831Z,43.58
2023-07-21T10:42:13.308Z,41.50
2023-07-21T10:44:46.363Z,42.60
2023-07-21T10:47:17.363Z,43.21
2023-07-21T10:49:47.625Z,43.63
2023-07-21T10:52:17.014Z,42.64
2023-07-21T10:54:47.438Z,43.45
2023-07-21T10:57:16.141Z,42.42
2023-07-21T10:59:44.613Z,41.92
2023-07-21T11:02:13.357Z,41.60
2023-07-21T11:04:42.470Z,41.40
2023-07-21T11:07:11.239Z,42.28
2023-07-21T11:09:45.403Z,42.16
2023-07-21T11:12:14.130Z,40.81
2023-07-21T11:14:42.866Z,39.77
2023-07-21T11:17:11.362Z,38.78
2023-07-21T11:19:40.216Z,38.59
2023-07-21T11:22:11.923Z,39.56
2023-07-21T11:24:40.645Z,40.00
2023-07-21T11:27:12.434Z,39.28
2023-07-21T11:29:44.884Z,39.09
2023-07-21T11:32:24.324Z,39.69
2023-07-21T11:34:58.044Z,39.26
2023-07-21T11:37:27.380Z,38.86
2023-07-21T11:39:57.491Z,38.23
2023-07-21T11:42:26.276Z,38.49
2023-07-21T11:44:55.069Z,36.82
2023-07-21T11:47:24.152Z,36.16
2023-07-21T11:49:54.770Z,35.91
2023-07-21T11:52:26.349Z,35.75
2023-07-21T11:54:56.657Z,36.53
2023-07-21T11:57:25.212Z,35.52
2023-07-21T11:59:53.581Z,35.40
2023-07-21T12:02:24.956Z,35.83
2023-07-21T12:04:54.172Z,35.81
2023-07-21T12:07:23.897Z,34.68
2023-07-21T12:09:52.227Z,35.39
2023-07-21T12:12:20.576Z,34.86
2023-07-21T12:14:49.153Z,34.68
2023-07-21T12:17:20.532Z,34.62
2023-07-21T12:19:50.784Z,35.11
2023-07-21T12:22:19.281Z,35.21
2023-07-21T12:24:47.804Z,34.22
2023-07-21T12:27:16.402Z,33.75
2023-07-21T12:29:46.668Z,33.60
2023-07-21T12:32:15.847Z,33.44
2023-07-21T12:34:44.622Z,33.14
2023-07-21T12:37:13.243Z,32.38
2023-07-21T12:39:42.167Z,31.26
2023-07-21T12:42:10.665Z,31.10
2023-07-21T12:44:39.341Z,30.50
2023-07-21T12:47:08.117Z,30.01
2023-07-21T12:49:36.735Z,29.32
2023-07-21T12:52:05.786Z,29.41
2023-07-21T12:54:34.150Z,29.19
2023-07-21T12:57:03.061Z,29.06
2023-07-21T12:59:33.239Z,28.49
2023-07-21T13:02:01.888Z,28.32
2023-07-21T13:04:30.475Z,28.39
2023-07-21T13:06:59.424Z,27.30
2023-07-21T13:09:27.834Z,26.67
2023-07-21T13:11:57.835Z,26.03
2023-07-21T13:14:26.372Z,26.40
2023-07-21T13:16:54.858Z,26.73
2023-07-21T13:19:24.907Z,26.88
2023-07-21T13:21:57.153Z,26.88
2023-07-21T13:24:27.423Z,26.86
2023-07-21T13:26:55.917Z,26.50
2023-07-21T13:29:24.432Z,25.20
2023-07-21T13:31:53.002Z,24.99
2023-07-21T13:34:21.532Z,24.38
2023-07-21T13:36:51.390Z,24.40
2023-07-21T13:39:19.938Z,23.95
2023-07-21T13:41:49.109Z,24.18
2023-07-21T13:44:19.354Z,24.20
2023-07-21T13:46:48.422Z,23.57
2023-07-21T13:49:20.713Z,23.22
2023-07-21T13:51:49.313Z,23.22
2023-07-21T13:54:17.780Z,22.95
2023-07-21T13:56:46.326Z,22.74
2023-07-21T13:59:14.750Z,23.47
2023-07-21T14:01:43.164Z,23.83
2023-07-21T14:04:11.820Z,23.88
2023-07-21T14:06:40.408Z,23.91
2023-07-21T14:09:08.845Z,24.32
2023-07-21T14:11:40.170Z,24.31
2023-07-21T14:14:08.865Z,24.07
2023-07-21T14:16:37.320Z,23.73
2023-07-21T14:19:06.104Z,24.05
2023-07-21T14:21:35.346Z,23.52
2023-07-21T14:24:06.155Z,22.77
2023-07-21T14:26:35.583Z,22.53
2023-07-21T14:29:04.122Z,22.01
2023-07-21T14:31:34.926Z,22.03
2023-07-21T14:34:04.623Z,22.77
2023-07-21T14:36:33.265Z,22.64
2023-07-21T14:39:01.995Z,23.02
2023-07-21T14:41:32.860Z,23.44
2023-07-21T14:44:01.578Z,22.92
2023-07-21T14:46:30.317Z,22.31
2023-07-21T14:48:59.528Z,22.53
2023-07-21T14:51:28.321Z,22.76
2023-07-21T14:53:56.735Z,22.70
2023-07-21T14:56:26.281Z,22.94
2023-07-21T14:58:54.849Z,23.45
2023-07-21T15:01:23.427Z,23.91
2023-07-21T15:03:51.985Z,24.01
2023-07-21T15:06:21.693Z,24.20
2023-07-21T15:08:50.748Z,24.83
2023-07-21T15:11:19.226Z,23.92
2023-07-21T15:13:47.750Z,23.34
2023-07-21T15:16:16.306Z,24.01
2023-07-21T15:18:44.719Z,23.89
2023-07-21T15:21:13.136Z,23.63
2023-07-21T15:23:42.169Z,23.64
2023-07-21T15:26:10.638Z,23.02
2023-07-21T15:28:39.111Z,23.37
2023-07-21T15:31:08.541Z,24.22
2023-07-21T15:33:37.553Z,24.55
2023-07-21T15:36:06.045Z,24.84
2023-07-21T15:38:34.420Z,25.28
2023-07-21T15:41:03.584Z,25.66
2023-07-21T15:43:32.176Z,26.61
2023-07-21T15:46:01.162Z,26.53
2023-07-21T15:48:30.516Z,26.52
2023-07-21T15:50:59.131Z,26.69
2023-07-21T15:53:27.609Z,26.92
2023-07-21T15:55:56.120Z,27.02
2023-07-21T15:58:24.866Z,27.09
2023-07-21T16:01:00.542Z,26.59
2023-07-21T16:03:29.605Z,25.87
2023-07-21T16:05:58.861Z,25.43
2023-07-21T16:08:27.382Z,25.03
2023-07-21T16:10:56.137Z,25.06
2023-07-21T16:13:24.567Z,24.95
2023-07-21T16:15:53.550Z,25.04
2023-07-21T16:18:22.936Z,24.61
2023-07-21T16:20:51.315Z,24.32
2023-07-21T16:23:20.549Z,24.22
2023-07-21T16:25:49.066Z,24.94
2023-07-21T16:28:17.492Z,25.41
2023-07-21T16:30:46.321Z,25.81
2023-07-21T16:33:14.807Z,26.00
2023-07-21T16:35:43.356Z,26.68
2023-07-21T16:38:15.091Z,26.97
2023-07-21T16:40:43.788Z,26.80
2023-07-21T16:43:12.315Z,26.86
2023-07-21T16:45:44.794Z,27.29
2023-07-21T16:48:13.390Z,27.76
2023-07-21T16:50:41.833Z,28.65
2023-07-21T16:53:10.265Z,29.10
2023-07-21T16:55:38.792Z,29.96
2023-07-21T16:58:07.165Z,30.85
2023-07-21T17:00:35.589Z,31.54
2023-07-21T17:03:04.340Z,32.01
2023-07-21T17:05:35.784Z,32.37
2023-07-21T17:08:05.582Z,32.96
2023-07-21T17:10:33.958Z,33.83
2023-07-21T17:13:02.467Z,34.20
2023-07-21T17:15:31.489Z,34.64
2023-07-21T17:18:01.264Z,34.89
2023-07-21T17:20:29.978Z,35.10
2023-07-21T17:22:58.407Z,35.47
2023-07-21T17:25:29.597Z,35.79
2023-07-21T17:27:57.973Z,36.02
2023-07-21T17:30:26.570Z,36.35
2023-07-21T17:32:56.134Z,36.84
2023-07-21T17:35:24.626Z,37.25
2023-07-21T17:37:53.236Z,37.71
2023-07-21T17:40:23.014Z,38.09
2023-07-21T17:42:51.968Z,38.59
2023-07-21T17:45:20.820Z,38.86
2023-07-21T17:47:49.288Z,39.04
2023-07-21T17:50:17.883Z,39.33
2023-07-21T17:52:46.365Z,39.43
2023-07-21T17:55:17.634Z,39.35
2023-07-21T17:57:46.222Z,39.22
2023-07-21T18:00:15.230Z,38.99
2023-07-21T18:02:44.854Z,39.10
2023-07-21T18:05:14.345Z,39.01
2023-07-21T18:07:42.828Z,39.13
2023-07-21T18:10:11.735Z,38.86
2023-07-21T18:12:40.335Z,39.05
2023-07-21T18:15:09.342Z,38.95
2023-07-21T18:17:37.925Z,39.03
2023-07-21T18:20:08.388Z,39.35
2023-07-21T18:22:36.918Z,39.69
2023-07-21T18:25:07.537Z,39.70
2023-07-21T18:27:35.902Z,39.56
2023-07-21T18:30:05.169Z,39.48
2023-07-21T18:32:36.220Z,39.19
2023-07-21T18:35:06.253Z,39.11
2023-07-21T18:37:35.776Z,39.44
2023-07-21T18:40:11.079Z,39.23
2023-07-21T18:42:39.797Z,39.49
2023-07-21T18:45:09.221Z,39.79
2023-07-21T18:47:37.653Z,39.81
2023-07-21T18:50:06.677Z,39.92
2023-07-21T18:52:35.023Z,40.11
2023-07-21T18:55:03.628Z,40.33
2023-07-21T18:57:32.389Z,40.21
2023-07-21T19:00:01.081Z,40.52
2023-07-21T19:02:29.645Z,40.28
2023-07-21T19:04:58.077Z,40.22
2023-07-21T19:07:26.643Z,40.54
2023-07-21T19:09:55.030Z,40.62
2023-07-21T19:12:23.497Z,40.32
2023-07-21T19:14:53.136Z,40.53
2023-07-21T19:17:21.772Z,40.68
2023-07-21T19:19:52.503Z,40.82
2023-07-21T19:22:21.373Z,40.73
2023-07-21T19:24:49.807Z,41.12
2023-07-21T19:27:18.817Z,41.37
2023-07-21T19:29:47.392Z,41.61
2023-07-21T19:32:17.466Z,41.85
2023-07-21T19:34:49.830Z,42.13
2023-07-21T19:37:18.603Z,42.13
2023-07-21T19:39:49.852Z,42.28
2023-07-21T19:42:19.804Z,42.52
2023-07-21T19:44:48.573Z,42.69
2023-07-21T19:47:16.996Z,42.78
2023-07-21T19:49:45.666Z,43.19
2023-07-21T19:52:14.158Z,43.17
2023-07-21T19:54:43.054Z,43.49
2023-07-21T19:57:11.850Z,43.44
2023-07-21T19:59:40.355Z,43.54
2023-07-21T20:02:09.033Z,43.82
2023-07-21T20:04:37.507Z,43.68
2023-07-21T20:07:06.001Z,43.62
2023-07-21T20:09:34.373Z,43.45
2023-07-21T20:12:02.830Z,43.08
2023-07-21T20:14:31.294Z,42.88
2023-07-21T20:16:59.699Z,42.84
2023-07-21T20:19:28.221Z,42.87
2023-07-21T20:21:56.628Z,42.70
2023-07-21T20:24:25.178Z,42.89
2023-07-21T20:26:54.029Z,42.85
2023-07-21T20:29:22.498Z,42.78
2023-07-21T20:31:50.959Z,42.79
2023-07-21T20:34:19.855Z,42.95
2023-07-21T20:36:48.663Z,43.14
2023-07-21T20:39:17.230Z,43.08
2023-07-21T20:41:45.720Z,42.95
2023-07-21T20:44:14.150Z,42.90
2023-07-21T20:46:43.324Z,42.98
2023-07-21T20:49:11.821Z,43.01
2023-07-21T20:51:40.573Z,42.93
2023-07-21T20:54:09.049Z,42.88
2023-07-21T20:56:37.456Z,42.96
2023-07-21T20:59:06.106Z,43.00
2023-07-21T21:01:34.877Z,43.18
2023-07-21T21:04:03.547Z,43.19
2023-07-21T21:06:32.058Z,43.02
2023-07-21T21:09:00.431Z,42.91
2023-07-21T21:11:28.929Z,42.70
2023-07-21T21:13:57.365Z,42.59
2023-07-21T21:16:26.224Z,42.75
2023-07-21T21:18:54.803Z,42.76
2023-07-21T21:21:23.272Z,42.50
2023-07-21T21:23:51.722Z,42.55
2023-07-21T21:26:20.161Z,42.68
2023-07-21T21:28:49.905Z,42.64
2023-07-21T21:31:18.433Z,42.68
2023-07-21T21:33:46.954Z,42.73
2023-07-21T21:36:15.497Z,42.59
2023-07-21T21:38:45.539Z,42.71
2023-07-21T21:41:14.344Z,42.78
2023-07-21T21:43:42.725Z,42.84
2023-07-21T21:46:11.271Z,42.80
2023-07-21T21:48:39.824Z,42.79
2023-07-21T21:51:08.237Z,42.91
2023-07-21T21:53:36.671Z,42.86
2023-07-21T21:56:05.396Z,42.58
2023-07-21T21:58:33.920Z,42.47
2023-07-21T22:01:05.408Z,42.50
2023-07-21T22:03:35.305Z,42.61
2023-07-21T22:06:04.210Z,42.68
2023-07-21T22:08:32.721Z,42.56
2023-07-21T22:11:03.042Z,42.64
2023-07-21T22:13:34.759Z,42.94
2023-07-21T22:16:04.127Z,43.09
2023-07-21T22:18:32.569Z,43.02
2023-07-21T22:21:00.992Z,43.31
2023-07-21T22:23:29.583Z,43.41
2023-07-21T22:26:04.577Z,43.17
2023-07-21T22:28:33.356Z,43.20
2023-07-21T22:31:01.866Z,43.40
2023-07-21T22:33:30.306Z,43.61
2023-07-21T22:35:58.823Z,43.69
2023-07-21T22:38:27.216Z,43.48
2023-07-21T22:40:55.746Z,43.68
2023-07-21T22:43:24.184Z,43.77
2023-07-21T22:45:57.130Z,43.76
2023-07-21T22:48:25.605Z,43.63
2023-07-21T22:50:54.105Z,43.64
2023-07-21T22:53:22.863Z,43.62
2023-07-21T22:55:53.391Z,43.65
2023-07-21T22:58:21.851Z,43.84
2023-07-21T23:00:50.344Z,43.68
2023-07-21T23:03:18.880Z,43.74
2023-07-21T23:05:47.863Z,43.88
2023-07-21T23:08:16.565Z,43.91
2023-07-21T23:10:45.613Z,44.25
2023-07-21T23:13:14.038Z,44.20
2023-07-21T23:15:42.533Z,44.32
2023-07-21T23:18:10.942Z,44.41
2023-07-21T23:20:39.960Z,44.21
2023-07-21T23:23:08.405Z,44.05
2023-07-21T23:25:36.958Z,43.98
2023-07-21T23:28:05.374Z,43.73
2023-07-21T23:30:34.056Z,43.93
2023-07-21T23:33:02.520Z,44.20
2023-07-21T23:35:31.616Z,44.28
2023-07-21T23:37:59.999Z,44.30
2023-07-21T23:40:29.197Z,44.72
2023-07-21T23:42:57.693Z,44.85
2023-07-21T23:45:26.278Z,44.96
2023-07-21T23:47:54.707Z,44.99
2023-07-21T23:50:24.159Z,45.19
2023-07-21T23:52:52.582Z,45.24
2023-07-21T23:55:21.085Z,45.20
2023-07-21T23:57:49.601Z,45.41
